sensor_id;sensor_type;location;lat;lon;timestamp;P1;P2;P0
64861;PMS5003;62652;42.274;-71.436;2024-01-16T00:00:00;7.07;5.27;3.13
64861;PMS5003;62652;42.274;-71.436;2024-01-16T00:01:00;5.87;4.40;3.17
64861;PMS5003;62652;42.274;-71.436;2024-01-16T00:02:00;6.47;6.47;3.63
64861;PMS5003;62652;42.274;-71.436;2024-01-16T00:03:00;8.40;6.60;3.83
64861;PMS5003;62652;42.274;-71.436;2024-01-16T00:04:00;6.33;5.60;3.50
64861;PMS5003;62652;42.274;-71.436;2024-01-16T00:05:00;7.57;6.20;4.03
64861;PMS5003;62652;42.274;-71.436;2024-01-16T00:06:01;5.47;5.47;3.33
64861;PMS5003;62652;42.274;-71.436;2024-01-16T00:07:00;7.47;7.03;3.43
64861;PMS5003;62652;42.274;-71.436;2024-01-16T00:08:00;7.33;6.80;4.57
64861;PMS5003;62652;42.274;-71.436;2024-01-16T00:09:00;8.10;7.30;3.83
64861;PMS5003;62652;42.274;-71.436;2024-01-16T00:10:00;8.30;7.47;4.00
64861;PMS5003;62652;42.274;-71.436;2024-01-16T00:11:01;7.07;5.33;3.47
64861;PMS5003;62652;42.274;-71.436;2024-01-16T00:12:01;7.93;7.80;4.93
64861;PMS5003;62652;42.274;-71.436;2024-01-16T00:13:00;8.07;7.63;4.17
64861;PMS5003;62652;42.274;-71.436;2024-01-16T00:14:00;8.00;6.83;4.37
64861;PMS5003;62652;42.274;-71.436;2024-01-16T00:15:00;11.10;9.00;5.30
64861;PMS5003;62652;42.274;-71.436;2024-01-16T00:16:01;9.93;9.43;7.40
64861;PMS5003;62652;42.274;-71.436;2024-01-16T00:17:02;10.93;9.43;6.40
64861;PMS5003;62652;42.274;-71.436;2024-01-16T00:18:00;9.30;8.50;4.90
64861;PMS5003;62652;42.274;-71.436;2024-01-16T00:19:00;7.93;6.80;4.47
64861;PMS5003;62652;42.274;-71.436;2024-01-16T00:20:00;7.57;7.47;5.20
64861;PMS5003;62652;42.274;-71.436;2024-01-16T00:21:00;9.67;9.40;7.20
64861;PMS5003;62652;42.274;-71.436;2024-01-16T00:22:00;12.10;10.43;6.73
64861;PMS5003;62652;42.274;-71.436;2024-01-16T00:23:00;11.07;10.43;8.07
64861;PMS5003;62652;42.274;-71.436;2024-01-16T00:24:00;14.30;13.30;8.50
64861;PMS5003;62652;42.274;-71.436;2024-01-16T00:25:00;11.40;10.60;8.37
64861;PMS5003;62652;42.274;-71.436;2024-01-16T00:26:00;11.33;9.80;7.60
64861;PMS5003;62652;42.274;-71.436;2024-01-16T00:27:00;12.60;11.10;8.13
64861;PMS5003;62652;42.274;-71.436;2024-01-16T00:28:04;13.80;13.80;9.30
64861;PMS5003;62652;42.274;-71.436;2024-01-16T00:29:00;12.93;12.23;8.03
64861;PMS5003;62652;42.274;-71.436;2024-01-16T00:30:00;13.33;11.43;8.43
64861;PMS5003;62652;42.274;-71.436;2024-01-16T00:31:00;11.63;10.40;8.00
64861;PMS5003;62652;42.274;-71.436;2024-01-16T00:32:00;12.97;10.93;7.83
64861;PMS5003;62652;42.274;-71.436;2024-01-16T00:33:00;10.43;10.20;7.73
64861;PMS5003;62652;42.274;-71.436;2024-01-16T00:34:00;11.20;9.97;7.57
64861;PMS5003;62652;42.274;-71.436;2024-01-16T00:35:00;13.00;11.27;7.57
64861;PMS5003;62652;42.274;-71.436;2024-01-16T00:36:00;9.33;8.80;6.00
64861;PMS5003;62652;42.274;-71.436;2024-01-16T00:37:00;15.60;13.70;8.97
64861;PMS5003;62652;42.274;-71.436;2024-01-16T00:38:00;10.63;9.87;8.10
64861;PMS5003;62652;42.274;-71.436;2024-01-16T00:39:01;13.63;10.30;6.80
64861;PMS5003;62652;42.274;-71.436;2024-01-16T00:40:00;12.80;10.90;7.53
64861;PMS5003;62652;42.274;-71.436;2024-01-16T00:41:00;10.20;9.10;7.37
64861;PMS5003;62652;42.274;-71.436;2024-01-16T00:42:01;10.53;9.50;7.90
64861;PMS5003;62652;42.274;-71.436;2024-01-16T00:43:00;13.03;10.83;8.53
64861;PMS5003;62652;42.274;-71.436;2024-01-16T00:44:00;11.40;10.80;8.13
64861;PMS5003;62652;42.274;-71.436;2024-01-16T00:45:00;13.30;11.13;8.20
64861;PMS5003;62652;42.274;-71.436;2024-01-16T00:46:00;12.80;10.73;8.37
64861;PMS5003;62652;42.274;-71.436;2024-01-16T00:47:00;9.57;9.53;7.47
64861;PMS5003;62652;42.274;-71.436;2024-01-16T00:48:00;13.77;11.97;8.80
64861;PMS5003;62652;42.274;-71.436;2024-01-16T00:49:00;16.63;12.60;8.90
64861;PMS5003;62652;42.274;-71.436;2024-01-16T00:50:01;11.87;10.93;8.47
64861;PMS5003;62652;42.274;-71.436;2024-01-16T00:51:00;11.70;9.63;6.70
64861;PMS5003;62652;42.274;-71.436;2024-01-16T00:52:00;12.17;10.43;6.47
64861;PMS5003;62652;42.274;-71.436;2024-01-16T00:53:00;10.27;9.27;6.30
64861;PMS5003;62652;42.274;-71.436;2024-01-16T00:54:00;16.93;15.80;10.17
64861;PMS5003;62652;42.274;-71.436;2024-01-16T00:55:00;20.33;19.70;14.70
64861;PMS5003;62652;42.274;-71.436;2024-01-16T00:56:00;15.10;12.80;7.67
64861;PMS5003;62652;42.274;-71.436;2024-01-16T00:57:00;10.90;9.57;7.13
64861;PMS5003;62652;42.274;-71.436;2024-01-16T00:58:00;9.27;9.00;7.20
64861;PMS5003;62652;42.274;-71.436;2024-01-16T00:59:00;12.67;10.57;5.97
64861;PMS5003;62652;42.274;-71.436;2024-01-16T01:00:00;11.07;8.83;5.27
64861;PMS5003;62652;42.274;-71.436;2024-01-16T01:01:01;11.10;10.07;6.77
64861;PMS5003;62652;42.274;-71.436;2024-01-16T01:02:00;12.60;11.03;7.70
64861;PMS5003;62652;42.274;-71.436;2024-01-16T01:03:00;9.57;9.13;6.00
64861;PMS5003;62652;42.274;-71.436;2024-01-16T01:04:00;15.13;11.77;8.30
64861;PMS5003;62652;42.274;-71.436;2024-01-16T01:05:00;13.40;12.47;7.33
64861;PMS5003;62652;42.274;-71.436;2024-01-16T01:06:00;13.87;12.43;8.20
64861;PMS5003;62652;42.274;-71.436;2024-01-16T01:07:00;13.43;13.33;9.57
64861;PMS5003;62652;42.274;-71.436;2024-01-16T01:08:00;15.20;14.90;10.47
64861;PMS5003;62652;42.274;-71.436;2024-01-16T01:09:00;16.83;14.60;7.80
64861;PMS5003;62652;42.274;-71.436;2024-01-16T01:10:00;12.80;11.37;6.53
64861;PMS5003;62652;42.274;-71.436;2024-01-16T01:11:00;10.03;9.87;6.90
64861;PMS5003;62652;42.274;-71.436;2024-01-16T01:12:01;10.47;10.13;7.50
64861;PMS5003;62652;42.274;-71.436;2024-01-16T01:13:00;13.00;10.17;7.03
64861;PMS5003;62652;42.274;-71.436;2024-01-16T01:14:00;12.60;10.70;6.80
64861;PMS5003;62652;42.274;-71.436;2024-01-16T01:15:01;10.87;9.17;5.00
64861;PMS5003;62652;42.274;-71.436;2024-01-16T01:16:00;11.37;10.00;7.40
64861;PMS5003;62652;42.274;-71.436;2024-01-16T01:17:00;12.57;9.50;5.87
64861;PMS5003;62652;42.274;-71.436;2024-01-16T01:18:00;12.17;10.00;6.53
64861;PMS5003;62652;42.274;-71.436;2024-01-16T01:19:00;10.40;9.23;5.93
64861;PMS5003;62652;42.274;-71.436;2024-01-16T01:20:00;9.93;9.37;5.30
64861;PMS5003;62652;42.274;-71.436;2024-01-16T01:21:00;10.57;9.87;6.53
64861;PMS5003;62652;42.274;-71.436;2024-01-16T01:22:00;12.03;9.70;5.63
64861;PMS5003;62652;42.274;-71.436;2024-01-16T01:23:02;11.83;10.77;7.13
64861;PMS5003;62652;42.274;-71.436;2024-01-16T01:24:00;12.17;11.80;8.90
64861;PMS5003;62652;42.274;-71.436;2024-01-16T01:25:00;15.40;14.80;10.03
64861;PMS5003;62652;42.274;-71.436;2024-01-16T01:26:00;27.33;23.60;13.87
64861;PMS5003;62652;42.274;-71.436;2024-01-16T01:27:00;30.37;25.87;14.93
64861;PMS5003;62652;42.274;-71.436;2024-01-16T01:28:00;20.90;19.00;13.53
64861;PMS5003;62652;42.274;-71.436;2024-01-16T01:29:00;15.53;14.33;9.47
64861;PMS5003;62652;42.274;-71.436;2024-01-16T01:30:00;14.97;14.43;9.93
64861;PMS5003;62652;42.274;-71.436;2024-01-16T01:31:00;14.50;13.00;8.33
64861;PMS5003;62652;42.274;-71.436;2024-01-16T01:32:00;13.00;12.87;8.27
64861;PMS5003;62652;42.274;-71.436;2024-01-16T01:33:00;16.73;14.70;9.30
64861;PMS5003;62652;42.274;-71.436;2024-01-16T01:34:01;13.57;12.80;8.73
64861;PMS5003;62652;42.274;-71.436;2024-01-16T01:35:00;15.80;13.43;9.33
64861;PMS5003;62652;42.274;-71.436;2024-01-16T01:36:00;15.63;14.00;8.97
64861;PMS5003;62652;42.274;-71.436;2024-01-16T01:37:00;15.73;13.83;9.13
64861;PMS5003;62652;42.274;-71.436;2024-01-16T01:38:00;19.67;17.93;12.13
64861;PMS5003;62652;42.274;-71.436;2024-01-16T01:39:00;17.03;16.27;10.73
64861;PMS5003;62652;42.274;-71.436;2024-01-16T01:40:00;13.97;13.13;9.23
64861;PMS5003;62652;42.274;-71.436;2024-01-16T01:41:00;15.87;14.43;9.37
64861;PMS5003;62652;42.274;-71.436;2024-01-16T01:42:00;13.50;13.10;8.50
64861;PMS5003;62652;42.274;-71.436;2024-01-16T01:44:00;13.10;12.53;9.23
64861;PMS5003;62652;42.274;-71.436;2024-01-16T01:45:01;15.23;14.77;9.47
64861;PMS5003;62652;42.274;-71.436;2024-01-16T01:46:08;18.43;13.97;9.77
64861;PMS5003;62652;42.274;-71.436;2024-01-16T01:47:00;16.33;15.33;10.27
64861;PMS5003;62652;42.274;-71.436;2024-01-16T01:48:00;14.90;13.50;9.43
64861;PMS5003;62652;42.274;-71.436;2024-01-16T01:49:00;18.03;14.30;9.07
64861;PMS5003;62652;42.274;-71.436;2024-01-16T01:50:01;11.57;10.43;7.90
64861;PMS5003;62652;42.274;-71.436;2024-01-16T01:51:00;14.40;13.83;9.10
64861;PMS5003;62652;42.274;-71.436;2024-01-16T01:52:00;13.93;12.30;8.50
64861;PMS5003;62652;42.274;-71.436;2024-01-16T01:53:00;14.70;13.70;9.40
64861;PMS5003;62652;42.274;-71.436;2024-01-16T01:54:00;12.53;11.57;8.73
64861;PMS5003;62652;42.274;-71.436;2024-01-16T01:55:00;15.93;13.90;8.50
64861;PMS5003;62652;42.274;-71.436;2024-01-16T01:56:01;13.40;11.80;7.90
64861;PMS5003;62652;42.274;-71.436;2024-01-16T01:57:00;13.43;12.30;8.00
64861;PMS5003;62652;42.274;-71.436;2024-01-16T01:58:00;11.40;10.60;8.00
64861;PMS5003;62652;42.274;-71.436;2024-01-16T01:59:00;13.20;12.20;9.40
64861;PMS5003;62652;42.274;-71.436;2024-01-16T02:00:00;15.57;14.03;8.73
64861;PMS5003;62652;42.274;-71.436;2024-01-16T02:01:00;15.00;14.50;9.40
64861;PMS5003;62652;42.274;-71.436;2024-01-16T02:02:00;14.00;12.90;8.93
64861;PMS5003;62652;42.274;-71.436;2024-01-16T02:03:00;17.27;13.83;9.07
64861;PMS5003;62652;42.274;-71.436;2024-01-16T02:04:00;14.13;12.80;9.03
64861;PMS5003;62652;42.274;-71.436;2024-01-16T02:05:00;15.47;14.23;8.77
64861;PMS5003;62652;42.274;-71.436;2024-01-16T02:06:00;14.60;12.97;8.90
64861;PMS5003;62652;42.274;-71.436;2024-01-16T02:07:01;15.17;13.23;10.30
64861;PMS5003;62652;42.274;-71.436;2024-01-16T02:08:00;16.37;14.90;10.03
64861;PMS5003;62652;42.274;-71.436;2024-01-16T02:09:00;13.27;12.10;8.63
64861;PMS5003;62652;42.274;-71.436;2024-01-16T02:10:01;12.80;12.30;9.13
64861;PMS5003;62652;42.274;-71.436;2024-01-16T02:11:01;15.43;13.57;9.43
64861;PMS5003;62652;42.274;-71.436;2024-01-16T02:12:00;14.70;13.53;8.63
64861;PMS5003;62652;42.274;-71.436;2024-01-16T02:13:01;11.37;11.27;7.93
64861;PMS5003;62652;42.274;-71.436;2024-01-16T02:14:01;17.43;15.07;9.60
64861;PMS5003;62652;42.274;-71.436;2024-01-16T02:15:00;19.67;15.87;10.33
64861;PMS5003;62652;42.274;-71.436;2024-01-16T02:16:00;18.47;15.57;10.13
64861;PMS5003;62652;42.274;-71.436;2024-01-16T02:17:00;16.63;14.33;9.37
64861;PMS5003;62652;42.274;-71.436;2024-01-16T02:18:01;16.70;14.77;9.97
64861;PMS5003;62652;42.274;-71.436;2024-01-16T02:19:00;18.77;17.13;11.20
64861;PMS5003;62652;42.274;-71.436;2024-01-16T02:20:00;17.20;15.10;10.33
64861;PMS5003;62652;42.274;-71.436;2024-01-16T02:21:00;18.50;16.40;10.63
64861;PMS5003;62652;42.274;-71.436;2024-01-16T02:22:00;15.27;14.50;9.67
64861;PMS5003;62652;42.274;-71.436;2024-01-16T02:23:01;19.47;17.33;10.83
64861;PMS5003;62652;42.274;-71.436;2024-01-16T02:24:00;17.00;16.67;10.20
64861;PMS5003;62652;42.274;-71.436;2024-01-16T02:25:00;17.10;15.17;9.03
64861;PMS5003;62652;42.274;-71.436;2024-01-16T02:26:01;18.07;13.67;9.83
64861;PMS5003;62652;42.274;-71.436;2024-01-16T02:27:00;16.37;14.67;10.03
64861;PMS5003;62652;42.274;-71.436;2024-01-16T02:28:01;17.30;15.60;10.10
64861;PMS5003;62652;42.274;-71.436;2024-01-16T02:29:01;17.23;14.83;9.97
64861;PMS5003;62652;42.274;-71.436;2024-01-16T02:30:00;14.87;13.80;9.83
64861;PMS5003;62652;42.274;-71.436;2024-01-16T02:31:00;14.37;13.13;10.33
64861;PMS5003;62652;42.274;-71.436;2024-01-16T02:32:00;13.40;12.90;9.83
64861;PMS5003;62652;42.274;-71.436;2024-01-16T02:33:00;15.23;14.07;8.83
64861;PMS5003;62652;42.274;-71.436;2024-01-16T02:34:00;11.27;9.67;7.50
64861;PMS5003;62652;42.274;-71.436;2024-01-16T02:35:00;15.70;13.63;8.40
64861;PMS5003;62652;42.274;-71.436;2024-01-16T02:36:00;15.43;14.33;8.43
64861;PMS5003;62652;42.274;-71.436;2024-01-16T02:37:00;16.03;12.40;8.83
64861;PMS5003;62652;42.274;-71.436;2024-01-16T02:38:00;17.23;13.80;8.00
64861;PMS5003;62652;42.274;-71.436;2024-01-16T02:39:00;13.37;13.37;8.30
64861;PMS5003;62652;42.274;-71.436;2024-01-16T02:40:00;10.83;10.10;8.73
64861;PMS5003;62652;42.274;-71.436;2024-01-16T02:41:00;15.00;13.80;8.57
64861;PMS5003;62652;42.274;-71.436;2024-01-16T02:42:00;11.17;9.83;7.30
64861;PMS5003;62652;42.274;-71.436;2024-01-16T02:43:00;13.63;12.20;8.33
64861;PMS5003;62652;42.274;-71.436;2024-01-16T02:44:00;10.03;9.70;7.83
64861;PMS5003;62652;42.274;-71.436;2024-01-16T02:45:00;12.67;11.63;8.60
64861;PMS5003;62652;42.274;-71.436;2024-01-16T02:46:00;12.70;10.63;7.83
64861;PMS5003;62652;42.274;-71.436;2024-01-16T02:47:00;12.30;11.10;7.80
64861;PMS5003;62652;42.274;-71.436;2024-01-16T02:48:00;17.13;13.27;8.63
64861;PMS5003;62652;42.274;-71.436;2024-01-16T02:49:00;14.20;12.80;7.70
64861;PMS5003;62652;42.274;-71.436;2024-01-16T02:50:00;12.67;10.97;8.50
64861;PMS5003;62652;42.274;-71.436;2024-01-16T02:51:01;14.80;13.50;8.33
64861;PMS5003;62652;42.274;-71.436;2024-01-16T02:52:00;13.97;12.70;7.77
64861;PMS5003;62652;42.274;-71.436;2024-01-16T02:53:00;12.57;10.60;7.63
64861;PMS5003;62652;42.274;-71.436;2024-01-16T02:54:00;10.33;9.50;6.53
64861;PMS5003;62652;42.274;-71.436;2024-01-16T02:55:00;13.23;11.73;7.87
64861;PMS5003;62652;42.274;-71.436;2024-01-16T02:56:00;14.57;12.63;8.23
64861;PMS5003;62652;42.274;-71.436;2024-01-16T02:57:00;14.50;12.70;9.10
64861;PMS5003;62652;42.274;-71.436;2024-01-16T02:58:00;11.80;9.93;7.80
64861;PMS5003;62652;42.274;-71.436;2024-01-16T02:59:00;14.73;14.07;8.23
64861;PMS5003;62652;42.274;-71.436;2024-01-16T03:00:00;15.63;14.20;7.87
64861;PMS5003;62652;42.274;-71.436;2024-01-16T03:01:00;14.40;12.50;7.87
64861;PMS5003;62652;42.274;-71.436;2024-01-16T03:02:03;13.80;10.53;7.23
64861;PMS5003;62652;42.274;-71.436;2024-01-16T03:03:00;10.40;9.77;6.43
64861;PMS5003;62652;42.274;-71.436;2024-01-16T03:04:00;13.10;11.70;8.43
64861;PMS5003;62652;42.274;-71.436;2024-01-16T03:05:02;12.00;11.13;8.40
64861;PMS5003;62652;42.274;-71.436;2024-01-16T03:06:00;9.93;9.70;7.20
64861;PMS5003;62652;42.274;-71.436;2024-01-16T03:07:00;13.57;10.40;7.50
64861;PMS5003;62652;42.274;-71.436;2024-01-16T03:08:00;11.33;10.63;8.20
64861;PMS5003;62652;42.274;-71.436;2024-01-16T03:09:00;14.17;12.50;8.60
64861;PMS5003;62652;42.274;-71.436;2024-01-16T03:10:00;12.97;11.57;7.53
64861;PMS5003;62652;42.274;-71.436;2024-01-16T03:11:00;11.60;10.83;8.43
64861;PMS5003;62652;42.274;-71.436;2024-01-16T03:12:00;14.77;13.00;8.77
64861;PMS5003;62652;42.274;-71.436;2024-01-16T03:13:01;12.47;10.60;8.37
64861;PMS5003;62652;42.274;-71.436;2024-01-16T03:14:00;15.93;15.37;8.93
64861;PMS5003;62652;42.274;-71.436;2024-01-16T03:15:00;13.50;11.70;8.30
64861;PMS5003;62652;42.274;-71.436;2024-01-16T03:16:00;11.43;10.03;7.27
64861;PMS5003;62652;42.274;-71.436;2024-01-16T03:17:01;17.07;14.37;9.80
64861;PMS5003;62652;42.274;-71.436;2024-01-16T03:18:00;11.80;11.50;7.90
64861;PMS5003;62652;42.274;-71.436;2024-01-16T03:19:00;14.23;10.90;8.73
64861;PMS5003;62652;42.274;-71.436;2024-01-16T03:20:00;13.43;12.47;8.47
64861;PMS5003;62652;42.274;-71.436;2024-01-16T03:21:00;15.50;13.13;9.23
64861;PMS5003;62652;42.274;-71.436;2024-01-16T03:22:00;13.83;12.13;8.77
64861;PMS5003;62652;42.274;-71.436;2024-01-16T03:23:00;14.57;13.47;8.40
64861;PMS5003;62652;42.274;-71.436;2024-01-16T03:24:01;12.33;11.27;7.23
64861;PMS5003;62652;42.274;-71.436;2024-01-16T03:25:00;15.93;15.23;8.57
64861;PMS5003;62652;42.274;-71.436;2024-01-16T03:26:00;14.00;13.03;9.33
64861;PMS5003;62652;42.274;-71.436;2024-01-16T03:27:00;9.13;8.50;5.60
64861;PMS5003;62652;42.274;-71.436;2024-01-16T03:28:00;15.50;13.00;8.47
64861;PMS5003;62652;42.274;-71.436;2024-01-16T03:29:00;18.17;15.97;8.63
64861;PMS5003;62652;42.274;-71.436;2024-01-16T03:30:01;11.80;10.97;8.53
64861;PMS5003;62652;42.274;-71.436;2024-01-16T03:31:00;14.07;12.00;8.43
64861;PMS5003;62652;42.274;-71.436;2024-01-16T03:32:00;15.07;13.20;8.70
64861;PMS5003;62652;42.274;-71.436;2024-01-16T03:33:01;13.23;11.90;8.03
64861;PMS5003;62652;42.274;-71.436;2024-01-16T03:34:00;13.73;12.97;9.23
64861;PMS5003;62652;42.274;-71.436;2024-01-16T03:35:01;13.83;12.03;8.10
64861;PMS5003;62652;42.274;-71.436;2024-01-16T03:36:00;13.07;11.63;7.93
64861;PMS5003;62652;42.274;-71.436;2024-01-16T03:37:00;16.60;14.10;8.93
64861;PMS5003;62652;42.274;-71.436;2024-01-16T03:38:00;15.83;14.10;7.83
64861;PMS5003;62652;42.274;-71.436;2024-01-16T03:39:00;10.57;9.60;7.43
64861;PMS5003;62652;42.274;-71.436;2024-01-16T03:40:00;13.40;12.57;8.87
64861;PMS5003;62652;42.274;-71.436;2024-01-16T03:41:00;12.03;10.27;7.47
64861;PMS5003;62652;42.274;-71.436;2024-01-16T03:42:00;12.33;10.70;8.53
64861;PMS5003;62652;42.274;-71.436;2024-01-16T03:43:01;13.03;12.30;8.50
64861;PMS5003;62652;42.274;-71.436;2024-01-16T03:44:00;13.33;12.50;8.90
64861;PMS5003;62652;42.274;-71.436;2024-01-16T03:45:00;14.40;11.00;8.43
64861;PMS5003;62652;42.274;-71.436;2024-01-16T03:46:01;15.77;14.73;9.00
64861;PMS5003;62652;42.274;-71.436;2024-01-16T03:47:00;11.47;10.67;7.90
64861;PMS5003;62652;42.274;-71.436;2024-01-16T03:48:01;16.57;13.40;8.40
64861;PMS5003;62652;42.274;-71.436;2024-01-16T03:49:00;11.33;9.70;7.13
64861;PMS5003;62652;42.274;-71.436;2024-01-16T03:50:00;15.83;13.40;8.60
64861;PMS5003;62652;42.274;-71.436;2024-01-16T03:51:00;13.90;11.27;8.67
64861;PMS5003;62652;42.274;-71.436;2024-01-16T03:52:00;14.17;13.47;7.33
64861;PMS5003;62652;42.274;-71.436;2024-01-16T03:53:00;9.73;9.53;7.37
64861;PMS5003;62652;42.274;-71.436;2024-01-16T03:54:00;11.43;10.70;7.47
64861;PMS5003;62652;42.274;-71.436;2024-01-16T04:02:01;12.10;11.97;7.97
64861;PMS5003;62652;42.274;-71.436;2024-01-16T04:03:00;11.40;9.30;6.30
64861;PMS5003;62652;42.274;-71.436;2024-01-16T04:11:00;12.13;11.00;6.00
64861;PMS5003;62652;42.274;-71.436;2024-01-16T04:12:00;9.70;8.57;6.13
64861;PMS5003;62652;42.274;-71.436;2024-01-16T04:13:00;8.60;8.17;5.30
64861;PMS5003;62652;42.274;-71.436;2024-01-16T04:14:00;8.60;8.17;4.90
64861;PMS5003;62652;42.274;-71.436;2024-01-16T04:15:00;8.13;7.47;4.50
64861;PMS5003;62652;42.274;-71.436;2024-01-16T04:16:00;11.80;9.80;7.00
64861;PMS5003;62652;42.274;-71.436;2024-01-16T04:17:00;9.13;8.50;5.53
64861;PMS5003;62652;42.274;-71.436;2024-01-16T04:18:00;9.27;9.10;5.00
64861;PMS5003;62652;42.274;-71.436;2024-01-16T04:19:00;9.17;8.47;4.90
64861;PMS5003;62652;42.274;-71.436;2024-01-16T04:20:00;12.57;10.67;6.93
64861;PMS5003;62652;42.274;-71.436;2024-01-16T04:21:00;11.30;11.13;7.00
64861;PMS5003;62652;42.274;-71.436;2024-01-16T04:22:00;11.13;9.73;7.00
64861;PMS5003;62652;42.274;-71.436;2024-01-16T04:23:00;11.70;10.63;7.20
64861;PMS5003;62652;42.274;-71.436;2024-01-16T04:24:00;13.00;10.53;6.67
64861;PMS5003;62652;42.274;-71.436;2024-01-16T04:25:00;12.37;10.00;7.50
64861;PMS5003;62652;42.274;-71.436;2024-01-16T04:26:00;12.53;9.67;6.90
64861;PMS5003;62652;42.274;-71.436;2024-01-16T04:27:00;13.40;10.13;7.27
64861;PMS5003;62652;42.274;-71.436;2024-01-16T04:28:00;14.27;10.97;8.47
64861;PMS5003;62652;42.274;-71.436;2024-01-16T04:29:00;9.63;7.87;5.67
64861;PMS5003;62652;42.274;-71.436;2024-01-16T04:30:00;10.10;8.50;4.93
64861;PMS5003;62652;42.274;-71.436;2024-01-16T04:31:00;10.87;9.00;5.87
64861;PMS5003;62652;42.274;-71.436;2024-01-16T04:32:00;10.80;9.13;4.77
64861;PMS5003;62652;42.274;-71.436;2024-01-16T04:33:00;10.00;9.57;6.20
64861;PMS5003;62652;42.274;-71.436;2024-01-16T04:34:00;8.73;7.87;5.40
64861;PMS5003;62652;42.274;-71.436;2024-01-16T04:35:00;7.23;6.70;4.47
64861;PMS5003;62652;42.274;-71.436;2024-01-16T04:36:00;12.70;11.37;6.80
64861;PMS5003;62652;42.274;-71.436;2024-01-16T04:37:00;7.70;7.70;4.90
64861;PMS5003;62652;42.274;-71.436;2024-01-16T04:38:00;8.40;8.17;4.53
64861;PMS5003;62652;42.274;-71.436;2024-01-16T04:39:00;9.53;8.83;5.17
64861;PMS5003;62652;42.274;-71.436;2024-01-16T04:40:00;8.50;7.50;4.90
64861;PMS5003;62652;42.274;-71.436;2024-01-16T04:41:01;9.13;7.27;4.40
64861;PMS5003;62652;42.274;-71.436;2024-01-16T04:42:00;8.77;7.70;4.60
64861;PMS5003;62652;42.274;-71.436;2024-01-16T04:43:00;8.13;6.87;4.23
64861;PMS5003;62652;42.274;-71.436;2024-01-16T04:44:00;10.27;8.70;4.57
64861;PMS5003;62652;42.274;-71.436;2024-01-16T04:45:00;9.13;8.30;5.00
64861;PMS5003;62652;42.274;-71.436;2024-01-16T04:46:01;9.90;9.27;5.73
64861;PMS5003;62652;42.274;-71.436;2024-01-16T04:47:00;9.27;8.23;5.10
64861;PMS5003;62652;42.274;-71.436;2024-01-16T04:48:00;9.80;8.90;5.17
64861;PMS5003;62652;42.274;-71.436;2024-01-16T04:49:00;9.47;7.73;4.90
64861;PMS5003;62652;42.274;-71.436;2024-01-16T04:50:00;11.20;10.13;7.10
64861;PMS5003;62652;42.274;-71.436;2024-01-16T04:51:00;8.70;7.73;5.00
64861;PMS5003;62652;42.274;-71.436;2024-01-16T04:52:00;9.00;7.97;4.67
64861;PMS5003;62652;42.274;-71.436;2024-01-16T04:53:00;9.63;8.73;6.07
64861;PMS5003;62652;42.274;-71.436;2024-01-16T04:54:00;9.10;8.90;4.07
64861;PMS5003;62652;42.274;-71.436;2024-01-16T04:55:00;7.83;7.57;5.00
64861;PMS5003;62652;42.274;-71.436;2024-01-16T04:56:00;8.50;8.10;5.00
64861;PMS5003;62652;42.274;-71.436;2024-01-16T04:57:00;8.40;7.80;4.57
64861;PMS5003;62652;42.274;-71.436;2024-01-16T04:58:00;8.43;7.77;4.30
64861;PMS5003;62652;42.274;-71.436;2024-01-16T04:59:00;7.10;6.43;4.30
64861;PMS5003;62652;42.274;-71.436;2024-01-16T05:00:00;9.87;8.50;5.00
64861;PMS5003;62652;42.274;-71.436;2024-01-16T05:01:00;7.23;6.63;3.77
64861;PMS5003;62652;42.274;-71.436;2024-01-16T05:02:00;8.90;8.50;5.00
64861;PMS5003;62652;42.274;-71.436;2024-01-16T05:03:02;8.53;8.43;5.00
64861;PMS5003;62652;42.274;-71.436;2024-01-16T05:04:00;10.27;8.50;4.33
64861;PMS5003;62652;42.274;-71.436;2024-01-16T05:05:00;8.17;8.07;4.77
64861;PMS5003;62652;42.274;-71.436;2024-01-16T05:06:00;9.30;8.60;6.13
64861;PMS5003;62652;42.274;-71.436;2024-01-16T05:07:00;9.17;8.17;4.67
64861;PMS5003;62652;42.274;-71.436;2024-01-16T05:08:02;10.67;8.13;4.30
64861;PMS5003;62652;42.274;-71.436;2024-01-16T05:09:00;8.07;7.13;3.90
64861;PMS5003;62652;42.274;-71.436;2024-01-16T05:10:00;7.97;7.47;4.50
64861;PMS5003;62652;42.274;-71.436;2024-01-16T05:11:00;7.30;5.73;3.70
64861;PMS5003;62652;42.274;-71.436;2024-01-16T05:12:00;7.97;7.53;4.10
64861;PMS5003;62652;42.274;-71.436;2024-01-16T05:13:00;8.57;8.47;3.90
64861;PMS5003;62652;42.274;-71.436;2024-01-16T05:14:00;5.40;4.90;4.07
64861;PMS5003;62652;42.274;-71.436;2024-01-16T05:15:00;5.30;3.83;2.07
64861;PMS5003;62652;42.274;-71.436;2024-01-16T05:16:00;3.60;2.90;1.90
64861;PMS5003;62652;42.274;-71.436;2024-01-16T05:17:00;3.87;2.90;2.00
64861;PMS5003;62652;42.274;-71.436;2024-01-16T05:18:00;5.00;4.40;3.00
64861;PMS5003;62652;42.274;-71.436;2024-01-16T05:19:01;4.30;4.23;3.00
64861;PMS5003;62652;42.274;-71.436;2024-01-16T05:20:01;4.40;4.40;2.83
64861;PMS5003;62652;42.274;-71.436;2024-01-16T05:21:00;5.00;3.90;2.80
64861;PMS5003;62652;42.274;-71.436;2024-01-16T05:22:00;3.67;3.67;2.50
64861;PMS5003;62652;42.274;-71.436;2024-01-16T05:23:00;4.40;3.07;1.97
64861;PMS5003;62652;42.274;-71.436;2024-01-16T05:24:00;2.97;2.63;1.73
64861;PMS5003;62652;42.274;-71.436;2024-01-16T05:25:00;2.63;2.40;1.23
64861;PMS5003;62652;42.274;-71.436;2024-01-16T05:26:00;2.17;2.17;0.80
64861;PMS5003;62652;42.274;-71.436;2024-01-16T05:27:00;2.73;2.47;1.20
64861;PMS5003;62652;42.274;-71.436;2024-01-16T05:28:00;2.10;2.10;1.00
64861;PMS5003;62652;42.274;-71.436;2024-01-16T05:29:00;2.20;2.03;1.00
64861;PMS5003;62652;42.274;-71.436;2024-01-16T05:30:01;2.73;2.00;0.83
64861;PMS5003;62652;42.274;-71.436;2024-01-16T05:31:00;2.87;2.43;0.77
64861;PMS5003;62652;42.274;-71.436;2024-01-16T05:32:00;1.47;1.47;1.00
64861;PMS5003;62652;42.274;-71.436;2024-01-16T05:33:00;2.90;2.90;1.33
64861;PMS5003;62652;42.274;-71.436;2024-01-16T05:34:00;3.13;1.87;1.00
64861;PMS5003;62652;42.274;-71.436;2024-01-16T05:35:00;2.17;2.17;1.20
64861;PMS5003;62652;42.274;-71.436;2024-01-16T05:36:00;2.37;2.17;1.17
64861;PMS5003;62652;42.274;-71.436;2024-01-16T05:37:00;3.57;2.63;1.37
64861;PMS5003;62652;42.274;-71.436;2024-01-16T05:38:00;3.67;2.73;1.40
64861;PMS5003;62652;42.274;-71.436;2024-01-16T05:39:00;2.80;2.60;1.43
64861;PMS5003;62652;42.274;-71.436;2024-01-16T05:40:00;2.23;2.00;0.93
64861;PMS5003;62652;42.274;-71.436;2024-01-16T05:41:00;4.17;3.10;1.70
64861;PMS5003;62652;42.274;-71.436;2024-01-16T05:42:00;5.50;2.90;2.20
64861;PMS5003;62652;42.274;-71.436;2024-01-16T05:43:00;6.20;3.20;1.00
64861;PMS5003;62652;42.274;-71.436;2024-01-16T05:44:00;3.47;3.27;1.87
64861;PMS5003;62652;42.274;-71.436;2024-01-16T05:45:00;2.27;2.27;1.23
64861;PMS5003;62652;42.274;-71.436;2024-01-16T05:46:00;3.27;3.10;2.00
64861;PMS5003;62652;42.274;-71.436;2024-01-16T05:47:00;2.73;2.47;1.47
64861;PMS5003;62652;42.274;-71.436;2024-01-16T05:48:00;5.13;3.33;1.87
64861;PMS5003;62652;42.274;-71.436;2024-01-16T05:49:00;3.77;3.13;2.00